• Join FlightAware (Why Join?)
  • Login
  • US Flag 
12:14PM EDT


 

Airport Tracker/Info


-or-


 

Live Flight TrackerFlight Track Log ✈ AAL270 ✈ 04-May-2013 ✈ PHNL - KLAX

Flight Track Log - Related Links

Times and Time Zones

All times are in EDT time to prevent confusion due to time zone crossing. See the AAL270 flight status page for this flight to view local times or setup timezone preferences in your user account.

Time Position Orientation Groundspeed Altitude Reporting Facility
EDT Latitude Longitude Course Direction KTS MPH feet Rate Location/Type
01:09PM 21.3167 -157.9000 105° East 190 219 1,200  Level Honolulu Center
01:10PM 21.2667 -157.8667 148° Southeast 230 265 3,100 2,040 Climbing Honolulu Center
01:11PM 21.2488 -157.6459 108° East  Level FlightAware Approximate
01:12PM 21.2087 -157.5125 108° East  Level FlightAware Approximate
01:13PM 21.1793 -157.3760 100° East  Level FlightAware Approximate
01:14PM 21.1515 -157.2392 105° East  Level FlightAware Approximate
01:16PM 21.2830 -157.3170 148° Southeast 438 504 15,500  Level FlightAware
01:17PM 21.3020 -157.2300 77° East 444 511 15,800 180 Climbing FlightAware
01:17PM 21.3170 -157.1570 78° East 444 511 15,800  Level FlightAware
01:18PM 21.3330 -157.0840 77° East 444 511 15,800  Level FlightAware
01:19PM 21.3490 -157.0110 77° East 444 511 15,800  Level FlightAware
01:19PM 21.3680 -156.9200 77° East 444 511 15,800  Level FlightAware
01:20PM 21.3800 -156.8650 77° East 444 511 15,800 5,880 Level FlightAware
01:21PM 21.4333 -156.6000 77° East 500 575 25,000 5,580 Climbing Honolulu Center
01:22PM 21.4500 -156.4667 82° East 480 552 27,300 1,860 Climbing Honolulu Center
01:23PM 21.4833 -156.3167 77° East 490 564 28,800 1,440 Climbing Honolulu Center
01:24PM 21.5167 -156.1667 77° East 500 575 30,200 1,560 Climbing Honolulu Center
01:25PM 21.5500 -156.0167 77° East 500 575 32,000 1,560 Climbing Honolulu Center
01:26PM 21.5667 -155.8833 82° East 500 575 33,400 1,320 Climbing Honolulu Center
01:27PM 21.6000 -155.7500 75° East 500 575 34,700 1,200 Climbing Honolulu Center
01:28PM 21.6333 -155.6000 77° East 490 564 35,900 900 Climbing Honolulu Center
01:29PM 21.6667 -155.4667 75° East 490 564 36,600 720 Climbing Honolulu Center
01:30PM 21.6833 -155.3167 83° East 500 575 37,400 660 Climbing Honolulu Center
01:31PM 21.7167 -155.1667 77° East 510 587 38,000 300 Climbing Honolulu Center
01:32PM 21.7500 -155.0167 77° East 500 575 38,000  Level Honolulu Center
01:33PM 21.7833 -154.8667 77° East 500 575 38,000  Level Honolulu Center
01:34PM 21.8000 -154.7167 83° East 500 575 38,000  Level Honolulu Center
01:35PM 21.8333 -154.5833 75° East 500 575 38,000  Level Honolulu Center
01:36PM 21.8667 -154.4333 77° East 500 575 38,000  Level Honolulu Center
01:37PM 21.9000 -154.2833 77° East 490 564 38,000  Level Honolulu Center
01:38PM 21.9167 -154.1333 83° East 490 564 38,000  Level Honolulu Center
01:39PM 21.9500 -154.0000 75° East 490 564 38,000  Level Honolulu Center
01:41PM 21.9777 -153.7977 82° East  Level FlightAware Approximate
01:48PM 22.1491 -152.8383 78° East  Level FlightAware Approximate
01:49PM 22.1743 -152.7014 79° East  Level FlightAware Approximate
01:50PM 22.1995 -152.5644 79° East  Level FlightAware Approximate
01:51PM 22.2245 -152.4273 79° East  Level FlightAware Approximate
01:52PM 22.2494 -152.2903 79° East  Level FlightAware Approximate
01:53PM 22.2742 -152.1531 79° East  Level FlightAware Approximate
01:54PM 22.2989 -152.0159 79° East  Level FlightAware Approximate
01:55PM 22.3337 -151.8826 62° Northeast  Level FlightAware Approximate
01:55PM 22.3500 -151.8833 62° Northeast 489 563 38,000  Level Oakland Oceanic (ODAPS)
01:56PM 22.3954 -151.7570 62° Northeast  Level FlightAware Approximate
01:57PM 22.4570 -151.6312 62° Northeast  Level FlightAware Approximate
01:58PM 22.5185 -151.5054 62° Northeast  Level FlightAware Approximate
01:59PM 22.5799 -151.3794 62° Northeast  Level FlightAware Approximate
02:00PM 22.6401 -151.2554 62° Northeast  Level FlightAware Approximate
02:01PM 22.8567 -150.8420 62° Northeast 489 563 38,000  Level FlightAware Transoceanic
02:02PM 22.9195 -150.7113 62° Northeast 489 563 38,000  Level FlightAware Transoceanic
02:03PM 22.9823 -150.5805 63° Northeast 489 563 38,000  Level FlightAware Transoceanic
02:04PM 23.0450 -150.4495 63° Northeast 489 563 38,000  Level FlightAware Transoceanic
02:05PM 23.1075 -150.3185 63° Northeast 489 563 38,000  Level FlightAware Transoceanic
02:06PM 23.1699 -150.1873 63° Northeast 489 563 38,000  Level FlightAware Transoceanic
02:07PM 23.2322 -150.0560 63° Northeast 489 563 38,000  Level FlightAware Transoceanic
02:08PM 23.2945 -149.9245 63° Northeast 489 563 38,000  Level FlightAware Transoceanic
02:09PM 23.3566 -149.7930 63° Northeast 489 563 38,000  Level FlightAware Transoceanic
02:10PM 23.4185 -149.6613 63° Northeast 489 563 38,000  Level FlightAware Transoceanic
02:11PM 23.4804 -149.5295 63° Northeast 489 563 38,000  Level FlightAware Transoceanic
02:12PM 23.5422 -149.3975 63° Northeast 489 563 38,000  Level FlightAware Transoceanic
02:13PM 23.6038 -149.2655 63° Northeast 489 563 38,000  Level FlightAware Transoceanic
02:14PM 23.6654 -149.1333 63° Northeast 489 563 38,000  Level FlightAware Transoceanic
02:15PM 23.7268 -149.0010 63° Northeast 489 563 38,000  Level FlightAware Transoceanic
02:16PM 23.7882 -148.8686 63° Northeast 489 563 38,000  Level FlightAware Transoceanic
02:17PM 23.8494 -148.7360 63° Northeast 489 563 38,000  Level FlightAware Transoceanic
02:18PM 23.9105 -148.6033 63° Northeast 489 563 38,000  Level FlightAware Transoceanic
02:19PM 23.9714 -148.4705 63° Northeast 489 563 38,000  Level FlightAware Transoceanic
02:20PM 24.0323 -148.3376 63° Northeast 489 563 38,000  Level FlightAware Transoceanic
02:21PM 24.0931 -148.2045 63° Northeast 489 563 38,000  Level FlightAware Transoceanic
02:22PM 24.1537 -148.0714 64° Northeast 489 563 38,000  Level FlightAware Transoceanic
02:23PM 24.2142 -147.9381 64° Northeast 489 563 38,000  Level FlightAware Transoceanic
02:24PM 24.2746 -147.8046 64° Northeast 489 563 38,000  Level FlightAware Transoceanic
02:25PM 24.3349 -147.6711 64° Northeast 489 563 38,000  Level FlightAware Transoceanic
02:26PM 24.3951 -147.5374 64° Northeast 489 563 38,000  Level FlightAware Transoceanic
02:27PM 24.4552 -147.4036 64° Northeast 489 563 38,000  Level FlightAware Transoceanic
02:28PM 24.5151 -147.2696 64° Northeast 489 563 38,000  Level FlightAware Transoceanic
02:29PM 24.5749 -147.1355 64° Northeast 489 563 38,000  Level FlightAware Transoceanic
02:30PM 24.6346 -147.0013 64° Northeast 489 563 38,000  Level FlightAware Transoceanic
02:31PM 24.6942 -146.8670 64° Northeast 489 563 38,000  Level FlightAware Transoceanic
02:32PM 24.7536 -146.7326 64° Northeast 489 563 38,000  Level FlightAware Transoceanic
02:33PM 24.8130 -146.5980 64° Northeast 489 563 38,000  Level FlightAware Transoceanic
02:34PM 24.8722 -146.4633 64° Northeast 489 563 38,000  Level FlightAware Transoceanic
02:35PM 24.9313 -146.3284 64° Northeast 489 563 38,000  Level FlightAware Transoceanic
02:36PM 24.9903 -146.1935 64° Northeast 489 563 38,000  Level FlightAware Transoceanic
02:37PM 25.0491 -146.0584 64° Northeast 489 563 38,000  Level FlightAware Transoceanic
02:38PM 25.1079 -145.9231 64° Northeast 489 563 38,000  Level FlightAware Transoceanic
02:39PM 25.1665 -145.7878 64° Northeast 489 563 38,000  Level FlightAware Transoceanic
02:40PM 25.2250 -145.6523 65° Northeast 489 563 38,000  Level FlightAware Transoceanic
02:41PM 25.2833 -145.5167 65° Northeast 489 563 38,000  Level FlightAware Transoceanic
02:42PM 25.3401 -145.3837 65° Northeast 489 563 38,000 1,680 Level FlightAware Transoceanic
02:42PM 25.2833 -145.5167 65° Northeast 478 550 40,000  Climbing Oakland Oceanic (ODAPS)
02:43PM 25.3967 -145.2505 65° Northeast 489 563 38,000 -1,140 Descending FlightAware Transoceanic
02:44PM 25.4533 -145.1173 65° Northeast 489 563 38,000  Level FlightAware Transoceanic
02:45PM 25.5097 -144.9839 65° Northeast 489 563 38,000  Level FlightAware Transoceanic
02:46PM 25.5660 -144.8504 65° Northeast 489 563 38,000  Level FlightAware Transoceanic
02:47PM 25.6222 -144.7168 65° Northeast 489 563 38,000 960 Level FlightAware Transoceanic
02:48PM 25.7341 -144.4491 65° Northeast 478 550 40,000 960 Climbing FlightAware Transoceanic
02:49PM 25.7899 -144.3151 65° Northeast 478 550 40,000  Level FlightAware Transoceanic
02:50PM 25.8456 -144.1810 65° Northeast 478 550 40,000  Level FlightAware Transoceanic
02:51PM 25.9011 -144.0467 65° Northeast 478 550 40,000  Level FlightAware Transoceanic
02:52PM 25.9566 -143.9123 65° Northeast 478 550 40,000  Level FlightAware Transoceanic
02:53PM 26.0119 -143.7778 65° Northeast 478 550 40,000  Level FlightAware Transoceanic
02:54PM 26.0671 -143.6432 66° East 478 550 40,000  Level FlightAware Transoceanic
02:55PM 26.1221 -143.5084 66° East 478 550 40,000  Level FlightAware Transoceanic
02:56PM 26.1771 -143.3735 66° East 478 550 40,000  Level FlightAware Transoceanic
02:57PM 26.2319 -143.2385 66° East 478 550 40,000  Level FlightAware Transoceanic
02:58PM 26.2866 -143.1033 66° East 478 550 40,000  Level FlightAware Transoceanic
02:59PM 26.3411 -142.9680 66° East 478 550 40,000  Level FlightAware Transoceanic
03:00PM 26.3955 -142.8326 66° East 478 550 40,000  Level FlightAware Transoceanic
03:01PM 26.4498 -142.6971 66° East 478 550 40,000  Level FlightAware Transoceanic
03:02PM 26.5040 -142.5614 66° East 478 550 40,000  Level FlightAware Transoceanic
03:03PM 26.5580 -142.4257 66° East 478 550 40,000  Level FlightAware Transoceanic
03:04PM 26.6119 -142.2897 66° East 478 550 40,000  Level FlightAware Transoceanic
03:05PM 26.6657 -142.1537 66° East 478 550 40,000  Level FlightAware Transoceanic
03:06PM 26.7194 -142.0175 66° East 478 550 40,000  Level FlightAware Transoceanic
03:07PM 26.7729 -141.8812 66° East 478 550 40,000  Level FlightAware Transoceanic
03:08PM 26.8263 -141.7448 66° East 478 550 40,000  Level FlightAware Transoceanic
03:09PM 26.8796 -141.6082 66° East 478 550 40,000  Level FlightAware Transoceanic
03:10PM 26.9327 -141.4716 66° East 478 550 40,000  Level FlightAware Transoceanic
03:11PM 26.9857 -141.3347 67° East 478 550 40,000  Level FlightAware Transoceanic
03:12PM 27.0386 -141.1978 67° East 478 550 40,000  Level FlightAware Transoceanic
03:13PM 27.0913 -141.0607 67° East 478 550 40,000  Level FlightAware Transoceanic
03:14PM 27.1439 -140.9235 67° East 478 550 40,000  Level FlightAware Transoceanic
03:15PM 27.1964 -140.7862 67° East 478 550 40,000  Level FlightAware Transoceanic
03:16PM 27.2487 -140.6487 67° East 478 550 40,000  Level FlightAware Transoceanic
03:17PM 27.3009 -140.5112 67° East 478 550 40,000  Level FlightAware Transoceanic
03:18PM 27.3530 -140.3734 67° East 478 550 40,000  Level FlightAware Transoceanic
03:19PM 27.4049 -140.2356 67° East 478 550 40,000  Level FlightAware Transoceanic
03:20PM 27.4567 -140.0976 67° East 478 550 40,000  Level FlightAware Transoceanic
03:21PM 27.5084 -139.9595 67° East 478 550 40,000  Level FlightAware Transoceanic
03:22PM 27.5599 -139.8213 67° East 478 550 40,000  Level FlightAware Transoceanic
03:23PM 27.6113 -139.6829 67° East 478 550 40,000  Level FlightAware Transoceanic
03:24PM 27.6625 -139.5444 67° East 478 550 40,000  Level FlightAware Transoceanic
03:25PM 27.7136 -139.4058 67° East 478 550 40,000  Level FlightAware Transoceanic
03:26PM 27.7646 -139.2670 67° East 478 550 40,000  Level FlightAware Transoceanic
03:27PM 27.8154 -139.1282 68° East 478 550 40,000  Level FlightAware Transoceanic
03:28PM 27.8661 -138.9891 68° East 478 550 40,000  Level FlightAware Transoceanic
03:29PM 27.9167 -138.8500 68° East 478 550 40,000  Level FlightAware Transoceanic
03:30PM 27.9667 -138.7117 68° East 478 550 40,000  Level FlightAware Transoceanic
03:30PM 27.9167 -138.8500 68° East 485 558 40,000  Level Oakland Oceanic (ODAPS)
03:31PM 28.0166 -138.5733 68° East 478 550 40,000  Level FlightAware Transoceanic
03:32PM 28.0664 -138.4347 68° East 478 550 40,000  Level FlightAware Transoceanic
03:33PM 28.1160 -138.2960 68° East 478 550 40,000  Level FlightAware Transoceanic
03:34PM 28.1655 -138.1572 68° East 478 550 40,000  Level FlightAware Transoceanic
03:35PM 28.2148 -138.0183 68° East 478 550 40,000  Level FlightAware Transoceanic
03:36PM 28.2709 -137.8597 68° East 485 558 40,000  Level FlightAware Transoceanic
03:37PM 28.3209 -137.7177 68° East 485 558 40,000  Level FlightAware Transoceanic
03:38PM 28.3708 -137.5756 68° East 485 558 40,000  Level FlightAware Transoceanic
03:39PM 28.4205 -137.4333 68° East 485 558 40,000  Level FlightAware Transoceanic
03:40PM 28.4701 -137.2909 68° East 485 558 40,000  Level FlightAware Transoceanic
03:41PM 28.5195 -137.1483 69° East 485 558 40,000  Level FlightAware Transoceanic
03:42PM 28.5688 -137.0057 69° East 485 558 40,000  Level FlightAware Transoceanic
03:43PM 28.6179 -136.8629 69° East 485 558 40,000  Level FlightAware Transoceanic
03:44PM 28.6669 -136.7199 69° East 485 558 40,000  Level FlightAware Transoceanic
03:45PM 28.7157 -136.5769 69° East 485 558 40,000  Level FlightAware Transoceanic
03:46PM 28.7644 -136.4337 69° East 485 558 40,000  Level FlightAware Transoceanic
03:47PM 28.8129 -136.2903 69° East 485 558 40,000  Level FlightAware Transoceanic
03:48PM 28.8613 -136.1468 69° East 485 558 40,000  Level FlightAware Transoceanic
03:49PM 28.9095 -136.0032 69° East 485 558 40,000  Level FlightAware Transoceanic
03:50PM 28.9576 -135.8595 69° East 485 558 40,000  Level FlightAware Transoceanic
03:51PM 29.0055 -135.7156 69° East 485 558 40,000  Level FlightAware Transoceanic
03:52PM 29.0533 -135.5716 69° East 485 558 40,000  Level FlightAware Transoceanic
03:53PM 29.1009 -135.4275 69° East 485 558 40,000  Level FlightAware Transoceanic
03:54PM 29.1483 -135.2832 69° East 485 558 40,000  Level FlightAware Transoceanic
03:55PM 29.1956 -135.1388 69° East 485 558 40,000  Level FlightAware Transoceanic
03:56PM 29.2428 -134.9943 70° East 485 558 40,000  Level FlightAware Transoceanic
03:57PM 29.2898 -134.8496 70° East 485 558 40,000  Level FlightAware Transoceanic
03:58PM 29.3366 -134.7048 70° East 485 558 40,000  Level FlightAware Transoceanic
03:59PM 29.3833 -134.5598 70° East 485 558 40,000  Level FlightAware Transoceanic
04:00PM 29.4298 -134.4148 70° East 485 558 40,000  Level FlightAware Transoceanic
04:01PM 29.4762 -134.2696 70° East 485 558 40,000  Level FlightAware Transoceanic
04:02PM 29.5224 -134.1242 70° East 485 558 40,000  Level FlightAware Transoceanic
04:03PM 29.5684 -133.9788 70° East 485 558 40,000  Level FlightAware Transoceanic
04:04PM 29.6143 -133.8332 70° East 485 558 40,000  Level FlightAware Transoceanic
04:05PM 29.6600 -133.6874 70° East 485 558 40,000  Level FlightAware Transoceanic
04:06PM 29.7056 -133.5416 70° East 485 558 40,000  Level FlightAware Transoceanic
04:07PM 29.7510 -133.3956 70° East 485 558 40,000  Level FlightAware Transoceanic
04:08PM 29.7963 -133.2495 70° East 485 558 40,000  Level FlightAware Transoceanic
04:09PM 29.8414 -133.1032 70° East 485 558 40,000  Level FlightAware Transoceanic
04:10PM 29.8863 -132.9568 71° East 485 558 40,000  Level FlightAware Transoceanic
04:11PM 29.9311 -132.8103 71° East 485 558 40,000  Level FlightAware Transoceanic
04:12PM 29.9757 -132.6636 71° East 485 558 40,000  Level FlightAware Transoceanic
04:13PM 30.0201 -132.5168 71° East 485 558 40,000  Level FlightAware Transoceanic
04:14PM 30.0644 -132.3699 71° East 485 558 40,000  Level FlightAware Transoceanic
04:15PM 30.1085 -132.2229 71° East 485 558 40,000  Level FlightAware Transoceanic
04:16PM 30.1525 -132.0757 71° East 485 558 40,000  Level FlightAware Transoceanic
04:17PM 30.1963 -131.9283 71° East 485 558 40,000  Level FlightAware Transoceanic
04:18PM 30.2399 -131.7809 71° East 485 558 40,000  Level FlightAware Transoceanic
04:19PM 30.2833 -131.6333 71° East 485 558 40,000  Level FlightAware Transoceanic
04:20PM 30.3269 -131.4858 71° East 485 558 40,000  Level FlightAware Transoceanic
04:21PM 30.3703 -131.3381 71° East 485 558 40,000  Level FlightAware Transoceanic
04:22PM 30.4135 -131.1903 71° East 485 558 40,000  Level FlightAware Transoceanic
04:23PM 30.4566 -131.0424 71° East 485 558 40,000  Level FlightAware Transoceanic
04:24PM 30.4995 -130.8943 71° East 485 558 40,000  Level FlightAware Transoceanic
04:24PM 30.2833 -131.6333 71° East 495 570 40,000  Level Oakland Oceanic (ODAPS)
04:25PM 30.5422 -130.7461 72° East 485 558 40,000  Level FlightAware Transoceanic
04:26PM 30.5848 -130.5978 72° East 485 558 40,000  Level FlightAware Transoceanic
04:27PM 30.6272 -130.4494 72° East 485 558 40,000  Level FlightAware Transoceanic
04:28PM 30.6694 -130.3008 72° East 485 558 40,000  Level FlightAware Transoceanic
04:29PM 30.7114 -130.1521 72° East 485 558 40,000  Level FlightAware Transoceanic
04:30PM 30.7533 -130.0032 72° East 485 558 40,000  Level FlightAware Transoceanic
04:31PM 30.7627 -129.9698 72° East 495 570 40,000  Level FlightAware Transoceanic
04:32PM 30.8052 -129.8178 72° East 495 570 40,000  Level FlightAware Transoceanic
04:33PM 30.8476 -129.6656 72° East 495 570 40,000  Level FlightAware Transoceanic
04:34PM 30.8897 -129.5133 72° East 495 570 40,000  Level FlightAware Transoceanic
04:35PM 30.9317 -129.3608 72° East 495 570 40,000  Level FlightAware Transoceanic
04:36PM 30.9736 -129.2083 72° East 495 570 40,000  Level FlightAware Transoceanic
04:37PM 31.0152 -129.0555 72° East 495 570 40,000  Level FlightAware Transoceanic
04:38PM 31.0566 -128.9027 72° East 495 570 40,000  Level FlightAware Transoceanic
04:39PM 31.0979 -128.7497 73° East 495 570 40,000  Level FlightAware Transoceanic
04:40PM 31.1390 -128.5966 73° East 495 570 40,000  Level FlightAware Transoceanic
04:41PM 31.1799 -128.4434 73° East 495 570 40,000  Level FlightAware Transoceanic
04:42PM 31.2206 -128.2900 73° East 495 570 40,000  Level FlightAware Transoceanic
04:43PM 31.2612 -128.1365 73° East 495 570 40,000  Level FlightAware Transoceanic
04:44PM 31.3015 -127.9828 73° East 495 570 40,000  Level FlightAware Transoceanic
04:45PM 31.3417 -127.8291 73° East 495 570 40,000  Level FlightAware Transoceanic
04:46PM 31.3817 -127.6752 73° East 495 570 40,000  Level FlightAware Transoceanic
04:47PM 31.4215 -127.5211 73° East 495 570 40,000  Level FlightAware Transoceanic
04:48PM 31.4612 -127.3670 73° East 495 570 40,000  Level FlightAware Transoceanic
04:49PM 31.5006 -127.2127 73° East 495 570 40,000  Level FlightAware Transoceanic
04:50PM 31.5399 -127.0583 73° East 495 570 40,000  Level FlightAware Transoceanic
04:51PM 31.5789 -126.9037 74° East 495 570 40,000  Level FlightAware Transoceanic
04:52PM 31.6178 -126.7490 74° East 495 570 40,000  Level FlightAware Transoceanic
04:53PM 31.6565 -126.5942 74° East 495 570 40,000  Level FlightAware Transoceanic
04:54PM 31.6950 -126.4393 74° East 495 570 40,000  Level FlightAware Transoceanic
04:55PM 31.7334 -126.2842 74° East 495 570 40,000  Level FlightAware Transoceanic
04:56PM 31.7715 -126.1290 74° East 495 570 40,000  Level FlightAware Transoceanic
04:57PM 31.8095 -125.9737 74° East 495 570 40,000  Level FlightAware Transoceanic
04:58PM 31.8472 -125.8183 74° East 495 570 40,000  Level FlightAware Transoceanic
04:59PM 31.8848 -125.6627 74° East 495 570 40,000  Level FlightAware Transoceanic
05:00PM 31.9222 -125.5070 74° East 495 570 40,000  Level FlightAware Transoceanic
05:01PM 31.9594 -125.3511 74° East 495 570 40,000  Level FlightAware Transoceanic
05:02PM 31.9964 -125.1952 74° East 495 570 40,000  Level FlightAware Transoceanic
05:03PM 32.0332 -125.0391 74° East 495 570 40,000  Level FlightAware Transoceanic
05:04PM 32.0698 -124.8829 75° East 495 570 40,000  Level FlightAware Transoceanic
05:05PM 32.1062 -124.7266 75° East 495 570 40,000  Level FlightAware Transoceanic
05:06PM 32.1424 -124.5701 75° East 495 570 40,000  Level FlightAware Transoceanic
05:07PM 32.1785 -124.4135 75° East 495 570 40,000 -1,320 Level FlightAware Transoceanic
05:07PM 32.1775 -124.2753 46° Northeast 523 602 38,000  Descending Los Angeles Center
05:08PM 32.2143 -124.2568 75° East 495 570 40,000  Climbing FlightAware Transoceanic
05:08PM 32.2297 -124.0814 72° East 523 602 38,000  Descending Los Angeles Center
05:09PM 32.2500 -124.1000 46° Northeast 495 570 40,000  Climbing FlightAware Transoceanic
05:09PM 32.3206 -123.9481 51° Northeast 521 600 38,000  Descending Los Angeles Center
05:10PM 32.3455 -123.9848 46° Northeast 495 570 40,000  Climbing FlightAware Transoceanic
05:10PM 32.3914 -123.8011 60° Northeast 515 593 38,000  Descending Los Angeles Center
05:11PM 32.4409 -123.8694 46° Northeast 495 570 40,000  Climbing FlightAware Transoceanic
05:11PM 32.4522 -123.6458 65° Northeast 516 594 38,000  Descending Los Angeles Center
05:12PM 32.5362 -123.7537 46° Northeast 495 570 40,000  Climbing FlightAware Transoceanic
05:12PM 32.5106 -123.4867 66° East 523 602 38,000 -1,200 Descending Los Angeles Center
05:13PM 32.5719 -123.3308 65° Northeast 525 604 38,000  Level Los Angeles Center
05:14PM 32.6333 -123.1767 65° Northeast 521 600 38,000  Level Los Angeles Center
05:15PM 32.7036 -122.9881 66° East 522 601 38,000  Level Los Angeles Center
05:16PM 32.7633 -122.8303 66° East 525 604 38,000  Level Los Angeles Center
05:17PM 32.8222 -122.6722 66° East 525 604 38,000  Level Los Angeles Center
05:18PM 32.8806 -122.5150 66° East 524 603 38,000  Level Los Angeles Center
05:19PM 32.9417 -122.3589 65° Northeast 523 602 38,000  Level Los Angeles Center
05:20PM 32.9997 -122.2019 66° East 521 600 38,000  Level Los Angeles Center
05:21PM 33.0692 -122.0128 66° East 521 600 38,000  Level Los Angeles Center
05:23PM 33.1261 -121.8544 67° East 521 600 38,000 -60 Level Los Angeles Center
05:28PM 33.4590 -120.9970 67° East 527 606 37,700 -120 Descending FlightAware
05:29PM 33.4990 -120.8840 67° East 525 604 37,500 -180 Descending FlightAware
05:29PM 33.5310 -120.7930 67° East 525 604 37,500 -2,520 Level FlightAware
05:30PM 33.5850 -120.6380 67° East 511 588 33,800 -4,380 Descending FlightAware
05:31PM 33.6220 -120.5300 68° East 507 583 31,000 -3,780 Descending FlightAware
05:32PM 33.6630 -120.4120 67° East 514 592 28,500 -3,120 Descending FlightAware
05:33PM 33.7080 -120.2810 68° East 506 582 26,100 -2,880 Descending FlightAware
05:33PM 33.7350 -120.2020 68° East 498 573 24,700 -2,760 Descending FlightAware
05:34PM 33.7820 -120.0650 68° East 483 556 22,200 -2,760 Descending FlightAware
05:34PM 33.8060 -119.9940 68° East 475 547 20,800 -1,140 Descending FlightAware
05:35PM 33.8410 -119.8960 67° East 475 547 20,800 -1,860 Level FlightAware
05:36PM 33.8840 -119.7660 68° East 439 505 17,900 -2,580 Descending FlightAware
05:37PM 33.9130 -119.6780 68° East 440 506 17,000 -1,320 Descending FlightAware
05:37PM 33.9430 -119.5880 68° East 432 497 16,200 -1,320 Descending FlightAware
05:38PM 33.9770 -119.4860 68° East 427 491 15,200 -1,320 Descending FlightAware
05:39PM 34.0060 -119.3990 68° East 423 487 14,400 -900 Descending FlightAware
05:40PM 34.0400 -119.2970 68° East 415 478 13,900 -300 Descending FlightAware
05:40PM 34.0710 -119.2060 68° East 415 478 13,900  Level FlightAware
05:41PM 34.0950 -119.1320 69° East 415 478 13,900 -3,600 Level FlightAware
05:41PM 34.0780 -119.1030 125° Southeast 371 427 11,200 -2,700 Descending FlightAware
05:42PM 34.0660 -118.9840 97° East 372 428 11,200 -240 Level FlightAware
05:43PM 34.0570 -118.9030 98° East 371 427 10,900 -660 Descending FlightAware
05:44PM 34.0470 -118.8120 98° East 367 422 10,300 -600 Descending FlightAware
05:44PM 34.0390 -118.7370 97° East 362 417 10,100 -180 Descending FlightAware
05:45PM 34.0280 -118.6320 97° East 300 345 10,100 -480 Level FlightAware
05:46PM 34.0230 -118.5910 98° East 297 342 9,500 -1,320 Descending FlightAware
05:46PM 34.0180 -118.5420 97° East 291 335 8,900 -1,320 Descending FlightAware
05:46PM 34.0130 -118.5030 99° East 288 331 8,300 -1,440 Descending FlightAware
05:47PM 34.0110 -118.4670 94° East 288 331 7,700 -1,380 Descending FlightAware
05:48PM 34.0170 -118.3930 84° East 285 328 6,700 -1,140 Descending FlightAware
05:48PM 34.0210 -118.3440 84° East 267 307 6,300 -720 Descending FlightAware
05:49PM 34.0250 -118.3000 84° East 247 284 6,000 -600 Descending FlightAware
05:49PM 34.0270 -118.2690 86° East 229 264 5,800 -480 Descending FlightAware
05:49PM 34.0240 -118.2510 101° East 213 245 5,700 -600 Descending FlightAware
05:50PM 34.0150 -118.2390 132° Southeast 198 228 5,500 -1,020 Descending FlightAware
05:50PM 34.0010 -118.2360 170° South 185 213 5,200 -1,440 Descending FlightAware
05:50PM 33.9900 -118.2430 208° Southwest 190 219 4,800 -1,680 Descending FlightAware
05:50PM 33.9750 -118.2640 229° Southwest 191 220 4,100 -1,560 Descending FlightAware
05:51PM 33.9660 -118.2830 240° Southwest 187 215 3,500 -1,200 Descending FlightAware
05:52PM 33.9520 -118.3220 247° West 190 219 2,700 -2,160 Descending FlightAware
05:52PM 33.9570 -118.3360 293° West 193 222 1,700 -2,040 Descending FlightAware
05:52PM 33.9540 -118.3610 262° West 169 194 1,200 -480 Descending FlightAware
05:53PM 33.9510 -118.3840 261° West 169 194 1,200  Level FlightAware